Time;durP1;ratioP1;P1;durP2;ratioP2;P2;SDS_P1;SDS_P2;PMS_P1;PMS_P2;Temp;Humidity;BMP_temperature;BMP_pressure;BME280_temperature;BME280_humidity;BME280_pressure;Samples;Min_cycle;Max_cycle;Signal;HPM_P1;HPM_P2
2022/05/04 00:02:03;;;;;;;6.55;3.30;;;;;;;16.25;55.71;99820.81;4458037;32;35109;-84
2022/05/04 00:04:51;;;;;;;7.87;3.60;;;;;;;16.17;55.83;99832.28;4444307;32;32737;-83
2022/05/04 00:07:45;;;;;;;7.50;3.85;;;;;;;16.06;56.09;99822.91;4445290;32;34323;-83
2022/05/04 00:10:37;;;;;;;7.50;4.00;;;;;;;16.11;55.70;99823.03;4457608;32;33704;-84
2022/05/04 00:13:28;;;;;;;6.53;3.90;;;;;;;15.89;56.27;99824.69;4457726;32;34300;-83
2022/05/04 00:16:24;;;;;;;6.82;4.05;;;;;;;15.98;55.99;99825.19;4458143;32;33886;-83
2022/05/04 00:19:12;;;;;;;5.93;3.87;;;;;;;15.87;56.15;99821.34;4444765;32;34280;-83
2022/05/04 00:22:02;;;;;;;6.97;3.70;;;;;;;15.88;56.12;99822.19;4457694;32;33530;-83
2022/05/04 00:24:55;;;;;;;7.57;4.10;;;;;;;15.95;55.89;99825.66;4443603;32;34022;-83
2022/05/04 00:27:47;;;;;;;6.12;3.90;;;;;;;15.86;56.00;99827.94;4457601;32;34274;-84
2022/05/04 00:30:34;;;;;;;7.20;4.12;;;;;;;15.71;56.41;99830.34;4455986;32;33147;-83
2022/05/04 00:33:16;;;;;;;6.45;3.87;;;;;;;15.67;56.34;99829.12;4457095;32;34670;-82
2022/05/04 00:36:06;;;;;;;6.78;4.25;;;;;;;15.66;56.42;99827.44;4431971;32;32981;-85
2022/05/04 00:38:53;;;;;;;6.07;3.90;;;;;;;15.68;56.22;99830.81;4443994;32;32400;-84
2022/05/04 00:41:44;;;;;;;5.55;3.62;;;;;;;15.38;56.88;99834.47;4457046;32;33308;-84
2022/05/04 00:44:45;;;;;;;5.87;3.65;;;;;;;15.35;56.99;99834.13;4445172;32;33861;-84
2022/05/04 00:47:33;;;;;;;6.53;4.07;;;;;;;15.51;56.38;99835.34;4457133;32;34414;-85
2022/05/04 00:50:20;;;;;;;6.53;3.72;;;;;;;15.42;56.61;99832.94;4443717;32;32568;-83
2022/05/04 00:53:08;;;;;;;7.28;4.65;;;;;;;15.43;56.63;99837.38;4442466;32;34186;-84
2022/05/04 00:55:56;;;;;;;6.07;3.97;;;;;;;15.29;57.01;99833.13;4457121;32;34701;-83
2022/05/04 00:59:00;;;;;;;7.53;4.15;;;;;;;15.32;56.74;99838.19;4443363;32;33036;-84
2022/05/04 01:01:50;;;;;;;6.72;4.20;;;;;;;15.30;56.86;99831.22;4444577;32;34600;-83
2022/05/04 01:04:38;;;;;;;8.20;4.37;;;;;;;15.24;56.96;99829.38;4456674;32;34224;-84
2022/05/04 01:07:26;;;;;;;6.37;3.60;;;;;;;15.26;56.89;99835.53;4443846;32;33981;-84
2022/05/04 01:10:16;;;;;;;8.30;3.92;;;;;;;15.28;56.78;99845.28;4456916;32;35069;-83
2022/05/04 01:13:07;;;;;;;9.82;4.65;;;;;;;15.23;56.90;99839.59;4444372;32;33341;-84
2022/05/04 01:15:58;;;;;;;6.22;3.87;;;;;;;15.07;57.13;99831.97;4443055;32;31841;-83
2022/05/04 01:18:49;;;;;;;7.53;4.03;;;;;;;15.08;56.91;99828.13;4443951;32;34109;-83
2022/05/04 01:21:39;;;;;;;6.12;4.12;;;;;;;15.13;56.85;99833.78;4455686;32;34104;-84
2022/05/04 01:24:30;;;;;;;5.60;3.50;;;;;;;15.09;56.93;99827.06;4444301;32;34573;-83
2022/05/04 01:27:30;;;;;;;6.68;4.28;;;;;;;15.14;56.61;99828.03;4444216;32;31615;-84
2022/05/04 01:30:22;;;;;;;8.63;4.55;;;;;;;15.04;56.72;99830.53;4443989;32;32061;-83
2022/05/04 01:33:15;;;;;;;7.93;4.47;;;;;;;14.89;57.34;99832.87;4455749;32;33913;-84
2022/05/04 01:36:10;;;;;;;7.87;4.90;;;;;;;14.85;57.30;99831.66;4455780;32;33752;-85
2022/05/04 01:39:03;;;;;;;6.47;4.03;;;;;;;14.80;57.51;99832.38;4457075;32;31706;-83
2022/05/04 01:42:13;;;;;;;6.28;4.10;;;;;;;14.83;57.35;99829.12;4456716;32;33719;-83
2022/05/04 01:45:05;;;;;;;6.05;4.10;;;;;;;14.80;57.49;99829.59;4442553;32;34137;-84
2022/05/04 01:47:57;;;;;;;7.45;4.32;;;;;;;14.86;57.24;99826.97;4456801;32;33703;-83
2022/05/04 01:50:47;;;;;;;6.62;4.25;;;;;;;14.77;57.55;99838.34;4443899;32;34235;-83
2022/05/04 01:53:35;;;;;;;6.78;4.40;;;;;;;14.62;57.80;99834.31;4456533;32;33737;-84
2022/05/04 01:56:28;;;;;;;6.47;4.12;;;;;;;14.77;57.20;99840.28;4455429;32;34541;-83
2022/05/04 01:59:21;;;;;;;7.93;4.53;;;;;;;14.74;57.12;99841.59;4444553;32;34563;-83
2022/05/04 02:02:15;;;;;;;6.62;3.97;;;;;;;14.86;56.66;99824.22;4455464;32;34191;-84
2022/05/04 02:05:03;;;;;;;7.55;4.72;;;;;;;14.60;57.32;99830.94;4445160;32;33094;-83
2022/05/04 02:07:54;;;;;;;7.35;4.25;;;;;;;14.64;57.08;99835.75;4445658;32;33293;-83
2022/05/04 02:10:46;;;;;;;8.35;4.87;;;;;;;14.57;57.37;99828.63;4457331;32;34112;-82
2022/05/04 02:13:37;;;;;;;6.75;4.40;;;;;;;14.40;57.92;99822.84;4432183;32;31645;-84
2022/05/04 02:16:23;;;;;;;6.80;4.20;;;;;;;14.43;57.75;99822.44;4443866;32;32392;-83
2022/05/04 02:19:14;;;;;;;7.18;4.30;;;;;;;14.41;57.68;99828.19;4443188;32;33905;-83
2022/05/04 02:21:59;;;;;;;6.82;4.78;;;;;;;14.40;57.53;99822.84;4458018;32;33921;-83
2022/05/04 02:24:52;;;;;;;8.85;4.30;;;;;;;14.34;57.90;99823.78;4444356;32;31750;-84
2022/05/04 02:27:43;;;;;;;8.65;4.65;;;;;;;14.28;58.03;99824.72;4445212;32;33654;-84
2022/05/04 02:30:26;;;;;;;9.35;4.45;;;;;;;14.39;57.65;99826.69;4458010;32;34455;-83
2022/05/04 02:33:14;;;;;;;7.07;4.75;;;;;;;14.20;58.18;99830.53;4444375;32;32557;-84
2022/05/04 02:39:14;;;;;;;7.75;4.53;;;;;;;14.37;57.63;99829.69;4459502;32;33914;-84
2022/05/04 02:42:05;;;;;;;6.28;4.40;;;;;;;14.25;57.85;99830.69;4443885;32;33012;-83
2022/05/04 02:44:53;;;;;;;6.60;4.18;;;;;;;14.10;57.94;99839.34;4445231;32;34014;-83
2022/05/04 02:47:37;;;;;;;7.05;4.30;;;;;;;14.13;57.91;99842.50;4445084;32;32220;-84
2022/05/04 02:50:25;;;;;;;7.55;4.70;;;;;;;14.16;57.81;99843.97;4457151;32;33835;-83
2022/05/04 02:53:16;;;;;;;10.75;4.62;;;;;;;14.13;57.79;99839.75;4471004;32;34301;-84
2022/05/04 02:56:10;;;;;;;7.53;4.95;;;;;;;14.16;57.55;99842.03;4445328;32;32687;-84
2022/05/04 02:59:00;;;;;;;7.22;4.80;;;;;;;14.16;57.57;99844.81;4458107;32;33483;-83
2022/05/04 03:05:10;;;;;;;11.90;5.50;;;;;;;14.04;57.70;99846.63;4446316;32;34048;-83
2022/05/04 03:07:58;;;;;;;11.12;4.82;;;;;;;14.06;57.82;99836.19;4444533;32;33348;-83
2022/05/04 03:13:58;;;;;;;8.40;4.90;;;;;;;13.91;58.33;99838.47;4430754;32;33373;-83
2022/05/04 03:16:45;;;;;;;7.35;5.10;;;;;;;13.84;58.47;99838.53;4457081;32;34514;-84
2022/05/04 03:19:36;;;;;;;7.80;4.90;;;;;;;13.86;58.32;99841.06;4456721;32;34139;-83
2022/05/04 03:22:26;;;;;;;8.10;4.85;;;;;;;13.93;58.76;99841.00;4456855;32;33169;-83
2022/05/04 03:25:15;;;;;;;8.68;5.00;;;;;;;14.04;58.10;99843.88;4443546;32;32213;-83
2022/05/04 03:28:03;;;;;;;9.00;5.43;;;;;;;13.97;57.89;99851.34;4454207;32;35227;-82
2022/05/04 03:30:49;;;;;;;8.55;5.37;;;;;;;13.92;58.05;99839.31;4453780;32;33900;-83
2022/05/04 03:33:36;;;;;;;10.05;5.37;;;;;;;13.97;57.89;99851.34;4453678;32;32700;-83
2022/05/04 03:36:24;;;;;;;10.73;5.53;;;;;;;13.90;57.89;99850.56;4439309;32;32258;-83
2022/05/04 03:39:13;;;;;;;7.45;5.30;;;;;;;13.88;58.01;99852.72;4450888;32;33422;-82
2022/05/04 03:42:02;;;;;;;8.55;5.40;;;;;;;13.87;58.22;99858.47;4438461;32;32369;-83
2022/05/04 03:44:47;;;;;;;9.80;5.28;;;;;;;13.93;57.95;99855.66;4441769;32;33223;-82
2022/05/04 03:47:40;;;;;;;9.65;5.30;;;;;;;13.75;58.60;99858.34;4441330;32;33005;-82
2022/05/04 03:50:34;;;;;;;7.62;4.50;;;;;;;13.67;58.91;99862.22;4440842;32;32955;-83
2022/05/04 03:53:26;;;;;;;10.05;5.47;;;;;;;13.64;58.90;99867.38;4442283;32;34827;-83
2022/05/04 03:56:15;;;;;;;9.70;5.47;;;;;;;13.83;58.37;99855.31;4455054;32;33623;-83
2022/05/04 03:59:05;;;;;;;8.70;5.35;;;;;;;13.69;58.92;99862.84;4453650;32;33647;-84
2022/05/04 04:01:53;;;;;;;7.53;4.85;;;;;;;13.79;58.78;99870.63;4441653;32;34296;-82
2022/05/04 04:04:44;;;;;;;7.43;4.93;;;;;;;13.77;58.87;99868.09;4453899;32;33792;-84
2022/05/04 04:07:35;;;;;;;9.27;5.62;;;;;;;13.78;59.00;99871.69;4453699;32;32708;-83
2022/05/04 04:10:24;;;;;;;9.18;5.53;;;;;;;13.81;58.84;99871.25;4453455;32;33593;-83
2022/05/04 04:13:15;;;;;;;8.38;5.57;;;;;;;13.76;59.12;99876.59;4452556;32;32968;-83
2022/05/04 04:16:03;;;;;;;9.35;6.20;;;;;;;13.70;59.27;99874.72;4453685;32;34740;-83
2022/05/04 04:18:59;;;;;;;9.50;5.78;;;;;;;13.74;59.28;99873.22;4440302;32;32074;-83
2022/05/04 04:21:55;;;;;;;8.30;5.68;;;;;;;13.69;59.50;99873.88;4453624;32;33727;-84
2022/05/04 04:24:42;;;;;;;14.02;6.12;;;;;;;13.84;59.09;99887.34;4453583;32;34152;-84
2022/05/04 04:27:32;;;;;;;8.52;5.35;;;;;;;13.65;59.88;99888.38;4453078;32;34599;-83
2022/05/04 04:30:32;;;;;;;11.43;6.35;;;;;;;13.74;59.85;99890.59;4454012;32;33179;-83
2022/05/04 04:33:22;;;;;;;10.50;6.35;;;;;;;13.77;59.86;99889.31;4439751;32;34068;-83
2022/05/04 04:36:13;;;;;;;10.73;5.80;;;;;;;13.79;59.94;99892.69;4453796;32;34581;-84
2022/05/04 04:39:04;;;;;;;10.68;5.87;;;;;;;13.74;60.23;99887.00;4440778;32;32175;-83
2022/05/04 04:41:49;;;;;;;7.72;5.28;;;;;;;13.79;60.25;99892.69;4440622;32;31887;-83
2022/05/04 04:44:36;;;;;;;9.43;6.30;;;;;;;13.89;60.09;99897.72;4440835;32;33149;-83
2022/05/04 04:47:25;;;;;;;9.50;5.87;;;;;;;13.81;60.45;99896.06;4453523;32;34437;-83
2022/05/04 04:50:29;;;;;;;10.55;6.68;;;;;;;13.78;60.72;99893.75;4441851;32;34884;-80
2022/05/04 04:53:23;;;;;;;9.80;6.10;;;;;;;14.00;60.44;99895.06;4453554;32;33433;-83
2022/05/04 04:56:13;;;;;;;9.05;5.95;;;;;;;14.14;60.45;99896.63;4453402;32;34613;-85
2022/05/04 04:59:06;;;;;;;10.13;6.30;;;;;;;14.10;61.10;99898.16;4440735;32;33091;-83
2022/05/04 05:01:58;;;;;;;10.63;6.20;;;;;;;13.99;62.37;99906.31;4440663;32;33417;-84
2022/05/04 05:04:47;;;;;;;9.65;6.45;;;;;;;14.37;61.51;99900.63;4441268;32;34124;-84
2022/05/04 05:07:38;;;;;;;21.65;12.13;;;;;;;14.58;61.11;99893.84;4441894;32;33784;-83
2022/05/04 05:10:34;;;;;;;11.20;7.55;;;;;;;14.60;62.12;99899.97;4430941;32;35229;-83
2022/05/04 05:13:27;;;;;;;11.45;7.05;;;;;;;14.70;62.50;99901.13;4441694;32;33996;-83
2022/05/04 05:16:16;;;;;;;12.65;6.60;;;;;;;14.89;62.15;99909.41;4429497;32;31754;-85
2022/05/04 05:19:06;;;;;;;12.20;7.03;;;;;;;15.29;61.21;99899.50;4452917;32;33715;-83
2022/05/04 05:21:59;;;;;;;12.35;6.72;;;;;;;15.43;61.74;99911.22;4439844;32;32878;-83
2022/05/04 05:24:50;;;;;;;11.38;6.82;;;;;;;15.49;61.34;99910.28;4441132;32;32606;-83
2022/05/04 05:27:43;;;;;;;11.75;6.55;;;;;;;15.48;61.11;99909.44;4440363;32;31741;-83
2022/05/04 05:30:34;;;;;;;12.60;7.28;;;;;;;15.70;60.58;99908.91;4453078;32;34522;-82
2022/05/04 05:33:27;;;;;;;9.90;6.80;;;;;;;15.79;60.54;99901.94;4440916;32;34069;-82
2022/05/04 05:36:18;;;;;;;14.25;6.37;;;;;;;15.94;60.20;99913.41;4429144;32;32532;-83
2022/05/04 05:39:09;;;;;;;11.52;6.30;;;;;;;15.91;60.68;99907.50;4439303;32;31885;-82
2022/05/04 05:42:02;;;;;;;12.02;6.25;;;;;;;16.07;60.31;99906.81;4452856;32;33609;-82
2022/05/04 05:44:53;;;;;;;11.80;6.60;;;;;;;16.28;60.07;99910.88;4453247;32;34457;-82
2022/05/04 05:47:41;;;;;;;10.45;6.97;;;;;;;16.40;59.80;99912.56;4454453;32;32685;-82
2022/05/04 05:50:46;;;;;;;8.77;5.47;;;;;;;16.52;59.57;99907.03;4441653;32;33575;-82
2022/05/04 05:53:47;;;;;;;9.45;6.10;;;;;;;16.58;59.54;99907.97;4441659;32;34490;-82
2022/05/04 05:56:37;;;;;;;11.15;6.75;;;;;;;16.73;59.31;99911.97;4452748;32;35456;-82
2022/05/04 05:59:29;;;;;;;11.73;6.75;;;;;;;16.83;59.36;99914.12;4440044;32;33064;-82
2022/05/04 06:02:19;;;;;;;11.55;6.85;;;;;;;16.93;59.27;99906.00;4441107;32;31909;-83
2022/05/04 06:05:13;;;;;;;13.73;7.00;;;;;;;17.04;59.10;99918.97;4452773;32;34558;-82
2022/05/04 06:08:24;;;;;;;18.95;13.50;;;;;;;17.13;58.86;99917.50;4429264;32;33201;-82
2022/05/04 06:11:20;;;;;;;14.02;10.02;;;;;;;17.28;58.48;99921.69;4453693;32;34596;-82
2022/05/04 06:14:15;;;;;;;13.95;7.55;;;;;;;17.37;58.41;99928.53;4452950;32;33551;-82
2022/05/04 06:17:03;;;;;;;13.18;7.53;;;;;;;17.50;58.14;99933.78;4427965;32;32305;-82
2022/05/04 06:19:56;;;;;;;18.75;7.78;;;;;;;17.62;57.87;99928.16;4453614;32;34116;-83
2022/05/04 06:22:46;;;;;;;10.60;7.43;;;;;;;17.65;57.89;99916.53;4440696;32;32442;-82
2022/05/04 06:25:37;;;;;;;14.55;8.35;;;;;;;17.72;57.05;99934.75;4452418;32;33220;-83
2022/05/04 06:28:30;;;;;;;11.80;7.85;;;;;;;17.91;56.25;99928.97;4439487;32;33366;-83
2022/05/04 06:34:22;;;;;;;12.77;7.15;;;;;;;18.16;55.50;99931.34;4453259;32;34023;-82
2022/05/04 06:37:16;;;;;;;11.65;7.15;;;;;;;18.22;54.64;99924.75;4439336;32;31841;-82
2022/05/04 06:40:10;;;;;;;9.75;6.40;;;;;;;18.36;55.21;99931.66;4452297;32;33689;-82
2022/05/04 06:43:03;;;;;;;9.75;6.10;;;;;;;18.48;54.62;99929.62;4440354;32;33279;-83
2022/05/04 06:45:57;;;;;;;10.00;6.60;;;;;;;18.55;53.53;99933.06;4452056;32;33664;-82
2022/05/04 06:48:50;;;;;;;14.70;8.05;;;;;;;18.63;52.72;99931.81;4439267;32;33150;-82
2022/05/04 06:51:38;;;;;;;13.13;7.30;;;;;;;18.78;52.00;99926.50;4441761;32;32285;-82
2022/05/04 06:54:24;;;;;;;8.60;6.00;;;;;;;18.88;52.39;99922.97;4454499;32;34461;-82
2022/05/04 06:57:16;;;;;;;10.63;7.70;;;;;;;19.02;51.95;99930.69;4442257;32;33942;-82
2022/05/04 07:00:06;;;;;;;11.50;6.87;;;;;;;19.15;51.84;99918.31;4454293;32;34027;-82
2022/05/04 07:02:56;;;;;;;9.93;5.90;;;;;;;19.30;51.71;99926.88;4454245;32;33762;-82
2022/05/04 07:05:52;;;;;;;7.47;5.32;;;;;;;19.49;50.91;99927.38;4455466;32;34481;-82
2022/05/04 07:08:43;;;;;;;7.75;4.37;;;;;;;19.46;50.23;99921.47;4440972;32;32277;-83
2022/05/04 07:11:30;;;;;;;7.55;5.18;;;;;;;19.60;50.68;99925.53;4454264;32;33956;-84
2022/05/04 07:14:17;;;;;;;8.77;5.20;;;;;;;19.72;49.62;99921.50;4454034;32;34583;-83
2022/05/04 07:17:10;;;;;;;7.70;4.47;;;;;;;19.89;49.33;99923.31;4454195;32;34299;-83
2022/05/04 07:20:01;;;;;;;13.23;4.82;;;;;;;19.99;49.60;99926.19;4442340;32;32885;-82
2022/05/04 07:22:51;;;;;;;8.02;3.92;;;;;;;20.06;49.38;99929.62;4454193;32;33171;-83
2022/05/04 07:25:43;;;;;;;6.78;4.25;;;;;;;20.14;49.04;99925.50;4453848;32;34521;-83
2022/05/04 07:28:35;;;;;;;13.10;9.40;;;;;;;20.14;46.36;99925.50;4453999;32;34182;-83
2022/05/04 07:31:30;;;;;;;8.70;6.03;;;;;;;20.33;46.61;99933.16;4454000;32;33979;-82
2022/05/04 07:34:22;;;;;;;43.80;34.33;;;;;;;20.47;46.76;99935.53;4453992;32;33261;-81
2022/05/04 07:37:11;;;;;;;9.75;4.10;;;;;;;20.57;47.59;99928.06;4441650;32;32703;-83
2022/05/04 07:43:08;;;;;;;6.28;4.12;;;;;;;20.94;46.04;99929.94;4453825;32;33244;-83
2022/05/04 07:46:01;;;;;;;7.12;3.72;;;;;;;21.08;44.74;99930.28;4441225;32;33070;-83
2022/05/04 07:48:55;;;;;;;12.93;8.55;;;;;;;21.14;44.09;99932.00;4441336;32;33200;-83
2022/05/04 07:51:46;;;;;;;7.93;4.05;;;;;;;21.46;44.56;99929.03;4429480;32;33736;-83
2022/05/04 07:54:28;;;;;;;6.22;3.50;;;;;;;21.42;43.67;99930.75;4441650;32;34606;-83
2022/05/04 07:57:16;;;;;;;6.70;3.08;;;;;;;21.55;43.11;99921.81;4441694;32;33230;-82
2022/05/04 08:06:11;;;;;;;8.27;2.78;;;;;;;21.76;41.80;99933.88;4455228;32;34730;-83
2022/05/04 08:09:00;;;;;;;5.65;3.10;;;;;;;22.09;41.29;99935.34;4453951;32;33231;-83
2022/05/04 08:11:54;;;;;;;6.68;3.33;;;;;;;22.19;41.63;99930.56;4430164;32;31861;-82
2022/05/04 08:14:44;;;;;;;5.18;2.95;;;;;;;22.14;41.06;99930.56;4453142;32;35109;-82
2022/05/04 08:17:36;;;;;;;7.18;4.15;;;;;;;22.28;40.06;99933.66;4454089;32;33029;-84
2022/05/04 08:20:30;;;;;;;5.00;2.95;;;;;;;22.53;39.65;99930.00;4447467;32;32480;-82
2022/05/04 08:23:23;;;;;;;5.72;2.75;;;;;;;22.57;38.48;99917.97;4453692;32;33869;-83
2022/05/04 08:26:17;;;;;;;6.43;2.92;;;;;;;22.83;38.41;99921.56;4436889;32;34299;-82
2022/05/04 08:29:10;;;;;;;6.32;2.30;;;;;;;22.99;38.13;99926.00;4453596;32;33811;-82
2022/05/04 08:31:58;;;;;;;5.80;2.87;;;;;;;22.94;35.00;99922.38;4440837;32;31699;-83
2022/05/04 08:34:52;;;;;;;6.15;2.78;;;;;;;22.87;36.42;99927.41;4442254;32;32216;-82
2022/05/04 08:37:50;;;;;;;8.65;3.47;;;;;;;23.16;35.52;99931.25;4432868;32;33930;-82
2022/05/04 08:40:43;;;;;;;6.55;2.33;;;;;;;23.03;35.90;99933.81;4425211;32;33129;-82
2022/05/04 08:43:31;;;;;;;5.93;2.65;;;;;;;23.12;36.22;99932.94;4424959;32;32856;-83
2022/05/04 08:46:23;;;;;;;4.37;2.60;;;;;;;22.99;37.12;99936.34;4426098;32;33618;-82
2022/05/04 08:49:12;;;;;;;10.07;5.53;;;;;;;23.05;36.74;99938.00;4439318;32;34395;-83
2022/05/04 08:52:06;;;;;;;10.30;6.90;;;;;;;23.00;36.61;99940.81;4445722;32;34415;-83
2022/05/04 08:55:05;;;;;;;5.25;2.60;;;;;;;23.20;36.57;99937.97;4428670;32;31859;-83
2022/05/04 08:57:51;;;;;;;4.72;2.92;;;;;;;23.22;37.33;99946.91;4455109;32;34970;-83
2022/05/04 09:00:46;;;;;;;6.78;2.72;;;;;;;23.51;35.47;99940.59;4453442;32;34272;-83
2022/05/04 09:03:39;;;;;;;11.88;7.12;;;;;;;23.28;34.15;99934.56;4453477;32;33664;-83
2022/05/04 09:06:38;;;;;;;11.75;6.43;;;;;;;23.60;34.54;99936.94;4441722;32;33248;-83
2022/05/04 09:09:29;;;;;;;8.70;3.70;;;;;;;23.89;35.27;99937.03;4453483;32;33989;-84
2022/05/04 09:12:20;;;;;;;6.35;3.33;;;;;;;24.01;34.61;99930.22;4441497;32;34152;-83
2022/05/04 09:15:08;;;;;;;5.03;2.70;;;;;;;23.89;34.18;99941.81;4440359;32;32131;-84
2022/05/04 09:17:53;;;;;;;4.47;2.60;;;;;;;23.81;33.38;99934.84;4441172;32;33367;-83
2022/05/04 09:20:59;;;;;;;4.62;3.08;;;;;;;23.81;33.69;99929.25;4453317;32;34680;-83
2022/05/04 09:23:47;;;;;;;4.57;2.58;;;;;;;24.03;34.22;99936.38;4453178;32;35770;-82
2022/05/04 09:26:40;;;;;;;9.38;4.43;;;;;;;24.15;34.13;99925.59;4441833;32;33983;-83
2022/05/04 09:29:46;;;;;;;7.20;4.37;;;;;;;24.16;34.86;99930.94;4441871;32;32586;-83
2022/05/04 09:32:40;;;;;;;5.95;3.30;;;;;;;24.32;35.14;99931.66;4441459;32;32495;-85
2022/05/04 09:35:31;;;;;;;7.62;3.70;;;;;;;24.34;34.37;99928.56;4441676;32;33887;-84
2022/05/04 09:47:37;;;;;;;8.27;3.67;;;;;;;25.26;33.68;99923.66;4453073;32;33973;-84
2022/05/04 09:50:28;;;;;;;8.57;3.58;;;;;;;25.40;32.84;99921.78;4441247;32;33437;-85
2022/05/04 09:53:15;;;;;;;7.68;4.05;;;;;;;25.53;31.96;99925.81;4440872;32;33444;-84
2022/05/04 09:56:09;;;;;;;6.62;4.28;;;;;;;25.85;32.82;99914.69;4440612;32;33108;-85
2022/05/04 09:58:56;;;;;;;8.35;5.37;;;;;;;26.30;32.77;99909.44;4452993;32;33895;-85
2022/05/04 10:01:50;;;;;;;7.75;4.18;;;;;;;26.59;32.28;99906.44;4452915;32;33984;-85
2022/05/04 10:04:44;;;;;;;8.48;3.60;;;;;;;26.45;31.66;99905.56;4441303;32;31951;-85
2022/05/04 10:07:36;;;;;;;9.93;4.75;;;;;;;26.15;31.19;99909.72;4439962;32;33372;-85
2022/05/04 10:10:24;;;;;;;6.80;3.30;;;;;;;26.12;31.40;99896.25;4441029;32;32975;-86
2022/05/04 10:13:11;;;;;;;7.43;3.05;;;;;;;25.89;31.62;99901.72;4440564;32;34121;-84
2022/05/04 10:16:06;;;;;;;8.32;3.33;;;;;;;25.21;30.66;99899.28;4440854;32;33272;-86
2022/05/04 10:19:00;;;;;;;9.52;5.53;;;;;;;25.15;30.67;99897.69;4439922;32;32137;-85
2022/05/04 10:21:54;;;;;;;7.12;3.80;;;;;;;24.83;31.55;99889.03;4440759;32;34463;-86
2022/05/04 10:24:51;;;;;;;6.07;2.90;;;;;;;24.61;32.00;99886.78;4453267;32;34908;-85
2022/05/04 10:27:55;;;;;;;7.25;2.67;;;;;;;24.45;32.42;99880.50;4456288;32;33055;-86
2022/05/04 10:30:43;;;;;;;5.40;2.83;;;;;;;24.29;33.01;99885.41;4446460;32;32540;-85
2022/05/04 10:33:40;;;;;;;5.80;2.55;;;;;;;23.84;32.89;99889.41;4433491;32;33027;-86
2022/05/04 10:36:58;;;;;;;5.77;3.30;;;;;;;23.94;32.83;99892.16;4457895;32;32775;-84
2022/05/04 10:39:55;;;;;;;11.15;4.82;;;;;;;23.92;34.34;99901.97;4443570;32;31890;-84
2022/05/04 10:43:16;;;;;;;17.67;8.07;;;;;;;23.94;38.92;99920.19;4444547;32;33762;-83
2022/05/04 10:46:20;;;;;;;13.45;5.30;;;;;;;23.53;45.75;99921.53;4443056;32;33975;-83
2022/05/04 10:49:14;;;;;;;12.45;5.32;;;;;;;23.04;48.71;99927.09;4458616;32;32818;-82
2022/05/04 10:52:15;;;;;;;13.75;5.25;;;;;;;22.54;51.41;99926.09;4458159;32;33302;-82
2022/05/04 10:55:08;;;;;;;9.23;4.40;;;;;;;22.38;50.84;99918.81;4443028;32;32257;-82
2022/05/04 10:57:59;;;;;;;;;;;;;;;21.99;52.41;99914.63;4457891;32;35601;-82
2022/05/04 11:01:37;;;;;;;10.52;4.80;;;;;;;21.80;51.83;99916.28;4460438;32;34365;-81
2022/05/04 11:04:37;;;;;;;12.40;4.43;;;;;;;21.28;54.01;99922.88;4456810;32;32006;-84
2022/05/04 11:07:28;;;;;;;12.43;4.50;;;;;;;21.13;54.48;99917.19;4445546;32;34766;-84
2022/05/04 11:10:26;;;;;;;14.70;4.97;;;;;;;20.88;50.24;99909.53;4433852;32;33021;-84
2022/05/04 11:13:21;;;;;;;8.27;3.90;;;;;;;20.70;53.29;99902.50;4445428;32;33448;-84
2022/05/04 11:16:05;;;;;;;11.25;3.78;;;;;;;21.05;51.10;99912.13;4460109;32;33106;-85
2022/05/04 11:19:02;;;;;;;7.37;4.30;;;;;;;20.88;48.73;99903.97;4446288;32;32481;-86
2022/05/04 11:21:53;;;;;;;10.30;4.40;;;;;;;20.35;51.15;99905.00;4443859;32;34036;-84
2022/05/04 11:24:53;;;;;;;11.07;4.32;;;;;;;20.09;51.13;99908.75;4457063;32;34535;-85
2022/05/04 11:27:49;;;;;;;11.70;7.62;;;;;;;20.08;54.28;99905.09;4445790;32;33039;-84
2022/05/04 11:30:46;;;;;;;11.48;4.93;;;;;;;20.33;58.49;99899.72;4444336;32;32273;-84
2022/05/04 11:33:37;;;;;;;8.45;4.45;;;;;;;20.75;56.96;99898.06;4457994;32;34370;-83
2022/05/04 11:36:37;;;;;;;7.50;4.30;;;;;;;21.03;56.19;99897.62;4442975;32;33218;-84
2022/05/04 11:39:33;;;;;;;11.38;4.30;;;;;;;21.00;56.45;99898.16;4432903;32;31805;-83
2022/05/04 11:42:29;;;;;;;7.47;4.30;;;;;;;21.01;56.14;99902.63;4430718;32;33274;-84
2022/05/04 11:45:20;;;;;;;8.27;5.05;;;;;;;20.95;56.37;99892.56;4445276;32;33499;-85
2022/05/04 11:48:09;;;;;;;7.93;4.87;;;;;;;20.97;56.63;99893.13;4457456;32;34124;-83
2022/05/04 11:51:06;;;;;;;7.25;4.47;;;;;;;20.89;57.77;99893.63;4445177;32;31948;-83
2022/05/04 11:54:06;;;;;;;7.60;4.18;;;;;;;20.67;58.84;99899.41;4458975;32;34506;-84
2022/05/04 11:56:56;;;;;;;6.60;4.10;;;;;;;20.82;57.87;99899.47;4445630;32;35187;-84
2022/05/04 11:59:47;;;;;;;7.25;4.35;;;;;;;20.64;58.89;99903.56;4470770;32;34087;-84
2022/05/04 12:02:44;;;;;;;7.53;4.43;;;;;;;20.67;58.22;99900.25;4444084;32;31956;-83
2022/05/04 12:05:35;;;;;;;6.90;4.80;;;;;;;20.67;58.94;99904.97;4443205;32;33289;-83
2022/05/04 12:08:28;;;;;;;10.48;6.68;;;;;;;20.74;58.74;99908.38;4457884;32;35411;-84
2022/05/04 12:11:19;;;;;;;7.62;5.15;;;;;;;20.44;60.02;99903.44;4444391;32;32524;-85
2022/05/04 12:14:11;;;;;;;9.80;5.62;;;;;;;20.53;59.31;99910.19;4457693;32;32873;-84
2022/05/04 12:17:05;;;;;;;9.60;6.00;;;;;;;20.46;59.24;99917.94;4422802;32;33308;-84
2022/05/04 12:19:51;;;;;;;26.73;16.05;;;;;;;20.38;59.43;99916.50;4456646;32;35459;-85
2022/05/04 12:22:42;;;;;;;9.40;6.07;;;;;;;20.38;59.67;99921.25;4457744;32;33854;-83
2022/05/04 12:25:49;;;;;;;11.52;6.25;;;;;;;20.32;59.84;99919.47;4445610;32;32873;-84
2022/05/04 12:28:42;;;;;;;10.10;6.35;;;;;;;20.33;59.78;99918.38;4442357;32;32149;-83
2022/05/04 12:34:42;;;;;;;11.80;8.32;;;;;;;20.33;60.43;99910.84;4458665;32;34737;-83
2022/05/04 12:37:52;;;;;;;7.75;5.57;;;;;;;20.42;60.45;99905.66;4443292;32;31913;-83
2022/05/04 12:41:10;;;;;;;8.75;5.45;;;;;;;20.41;61.47;99897.56;4446370;32;32486;-83
2022/05/04 12:43:57;;;;;;;12.25;7.78;;;;;;;20.28;62.31;99899.66;4442944;32;32781;-85
2022/05/04 12:46:54;;;;;;;11.07;6.95;;;;;;;19.96;64.49;99890.50;4444898;32;33867;-83
2022/05/04 12:49:45;;;;;;;10.93;6.37;;;;;;;19.93;64.48;99891.88;4444339;32;34265;-83
2022/05/04 12:56:51;;;;;;;9.05;6.20;;;;;;;19.98;64.18;99875.22;4455548;32;32607;-84
2022/05/04 13:00:23;;;;;;;8.38;6.40;;;;;;;20.18;63.35;99856.94;4428826;32;32612;-84
2022/05/04 13:04:24;;;;;;;8.20;6.12;;;;;;;19.92;64.89;99851.22;4443905;32;32268;-83
2022/05/04 13:07:29;;;;;;;10.32;7.57;;;;;;;20.12;63.70;99863.63;4427155;32;33331;-85
2022/05/04 13:10:30;;;;;;;9.20;6.30;;;;;;;20.37;63.25;99866.56;4453503;32;33492;-85
2022/05/04 13:13:34;;;;;;;11.85;7.55;;;;;;;20.50;62.86;99868.91;4453742;32;33978;-80
2022/05/04 13:16:22;;;;;;;12.10;7.37;;;;;;;20.59;63.71;99861.72;4452052;32;31916;-79
2022/05/04 13:19:17;;;;;;;10.90;6.72;;;;;;;20.82;63.74;99870.72;4429082;32;32172;-80
2022/05/04 13:22:08;;;;;;;9.57;7.00;;;;;;;21.02;62.93;99865.25;4427691;32;32788;-79
2022/05/04 13:24:57;;;;;;;7.53;6.28;;;;;;;21.02;61.31;99865.25;4450290;32;34803;-79
2022/05/04 13:27:43;;;;;;;9.20;6.45;;;;;;;21.24;59.76;99867.84;4447350;32;33715;-81
2022/05/04 13:30:41;;;;;;;10.30;6.90;;;;;;;21.39;59.19;99865.13;4436105;32;33398;-80
2022/05/04 13:33:31;;;;;;;8.90;6.70;;;;;;;21.52;58.30;99864.56;4432722;32;34719;-80
2022/05/04 13:36:23;;;;;;;11.75;6.93;;;;;;;21.52;57.86;99863.72;4434817;32;32620;-79
2022/05/04 13:39:16;;;;;;;6.30;3.85;;;;;;;21.62;56.40;99892.50;4439311;32;32985;-80
2022/05/04 13:42:08;;;;;;;18.25;12.18;;;;;;;21.84;50.86;99885.81;4433131;32;32969;-81
2022/05/04 13:45:06;;;;;;;7.35;4.07;;;;;;;21.75;48.60;99888.34;4432961;32;33156;-79
2022/05/04 13:48:01;;;;;;;5.68;3.05;;;;;;;21.76;49.47;99892.81;4446864;32;34877;-80
2022/05/04 13:53:55;;;;;;;7.53;3.10;;;;;;;21.36;49.05;99897.22;4435455;32;31897;-80
2022/05/04 13:56:51;;;;;;;5.30;3.05;;;;;;;21.40;52.39;99889.13;4435156;32;32942;-80
2022/05/04 13:59:43;;;;;;;6.20;3.33;;;;;;;21.54;51.64;99878.25;4437319;32;33607;-79
2022/05/04 14:02:34;;;;;;;5.57;3.50;;;;;;;21.33;56.39;99889.38;4442543;32;33572;-79
2022/05/04 14:05:32;;;;;;;6.72;3.28;;;;;;;21.26;58.50;99877.63;4450322;32;34038;-80
2022/05/04 14:08:17;;;;;;;5.60;3.25;;;;;;;21.51;57.72;99868.47;4441936;32;34201;-80
2022/05/04 14:11:05;;;;;;;5.07;2.90;;;;;;;21.65;56.37;99863.19;4465747;32;33843;-84
2022/05/04 14:17:06;;;;;;;6.03;2.33;;;;;;;21.68;56.46;99859.84;4450895;32;34060;-83